Time;durP1;ratioP1;P1;durP2;ratioP2;P2;SDS_P1;SDS_P2;PMS_P1;PMS_P2;Temp;Humidity;BMP_temperature;BMP_pressure;BME280_temperature;BME280_humidity;BME280_pressure;Samples;Min_cycle;Max_cycle;Signal;HPM_P1;HPM_P2
2022/05/16 00:01:11;;;;;;;15.27;6.35;;;10.90;99.90;;;;;;5014083;28;20038;-57
2022/05/16 00:03:37;;;;;;;11.82;5.97;;;10.70;99.90;;;;;;5013757;28;20049;-57
2022/05/16 00:06:03;;;;;;;8.73;4.88;;;11.10;99.90;;;;;;5013656;28;20038;-57
2022/05/16 00:08:29;;;;;;;13.45;6.38;;;10.20;99.90;;;;;;5012467;28;20046;-57
2022/05/16 00:10:56;;;;;;;15.60;7.38;;;10.60;99.90;;;;;;5012009;28;20097;-57
2022/05/16 00:13:22;;;;;;;18.00;7.22;;;10.90;99.90;;;;;;5013638;28;20042;-57
2022/05/16 00:15:47;;;;;;;19.52;7.65;;;10.70;99.90;;;;;;5012449;28;20061;-57
2022/05/16 00:18:13;;;;;;;12.02;5.60;;;10.50;99.90;;;;;;5012000;28;20041;-58
2022/05/16 00:20:39;;;;;;;12.68;6.30;;;10.50;99.90;;;;;;5011295;28;20050;-57
2022/05/16 00:23:05;;;;;;;9.48;5.45;;;10.60;99.90;;;;;;5013332;28;20037;-57
2022/05/16 00:25:31;;;;;;;14.57;6.90;;;10.60;99.90;;;;;;5012218;28;20664;-57
2022/05/16 00:27:56;;;;;;;10.30;5.55;;;10.20;99.90;;;;;;5013048;28;20547;-57
2022/05/16 00:30:22;;;;;;;10.38;6.05;;;10.50;99.90;;;;;;5012332;28;20496;-57
2022/05/16 00:32:48;;;;;;;11.68;5.28;;;10.60;99.90;;;;;;5012292;28;20045;-57
2022/05/16 00:35:16;;;;;;;12.25;5.35;;;10.60;99.90;;;;;;5011493;28;20045;-56
2022/05/16 00:37:42;;;;;;;10.90;4.97;;;10.70;99.90;;;;;;5011713;28;20049;-57
2022/05/16 00:40:09;;;;;;;14.45;5.57;;;11.00;99.90;;;;;;5011925;28;20489;-57
2022/05/16 00:42:35;;;;;;;11.48;5.03;;;10.30;99.90;;;;;;5012784;28;20038;-57
2022/05/16 00:45:02;;;;;;;13.50;6.10;;;10.80;99.90;;;;;;5013239;28;20513;-56
2022/05/16 00:47:27;;;;;;;11.50;5.90;;;10.80;99.90;;;;;;5013261;28;20040;-58
2022/05/16 00:49:55;;;;;;;11.15;5.20;;;10.90;99.90;;;;;;5011931;28;20049;-57
2022/05/16 00:52:27;;;;;;;10.05;4.90;;;10.60;99.90;;;;;;5013211;28;20107;-57
2022/05/16 00:55:10;;;;;;;8.45;4.93;;;10.20;99.90;;;;;;5013412;28;20037;-58
2022/05/16 00:57:40;;;;;;;7.10;5.13;;;10.20;99.90;;;;;;5012034;28;20077;-57
2022/05/16 01:00:11;;;;;;;11.32;4.82;;;10.60;99.90;;;;;;5011843;28;20108;-57
2022/05/16 01:05:26;;;;;;;10.65;4.72;;;10.50;99.90;;;;;;5013531;28;20092;-57
2022/05/16 01:07:52;;;;;;;11.43;4.88;;;11.00;99.90;;;;;;5013858;28;20041;-58
2022/05/16 01:10:21;;;;;;;9.80;4.70;;;10.40;99.90;;;;;;5011712;28;20116;-57
2022/05/16 01:12:49;;;;;;;8.75;4.53;;;10.00;99.90;;;;;;5013342;28;20037;-58
2022/05/16 01:15:23;;;;;;;9.88;4.35;;;10.70;99.90;;;;;;5012988;28;20477;-57
2022/05/16 01:17:50;;;;;;;8.98;4.35;;;10.00;99.90;;;;;;5011511;28;20073;-57
2022/05/16 01:20:16;;;;;;;8.30;4.30;;;10.60;99.90;;;;;;5012796;28;20060;-57
2022/05/16 01:22:44;;;;;;;9.75;4.07;;;10.10;99.90;;;;;;5012938;28;20477;-57
2022/05/16 01:25:23;;;;;;;8.40;3.45;;;10.50;99.90;;;;;;5012454;28;20061;-56
2022/05/16 01:27:57;;;;;;;9.38;3.65;;;10.10;99.90;;;;;;5012290;28;20569;-57
2022/05/16 01:30:31;;;;;;;10.00;3.67;;;10.60;99.90;;;;;;5012641;28;20045;-57
2022/05/16 01:32:57;;;;;;;8.57;3.30;;;10.90;99.90;;;;;;5009670;28;20049;-57
2022/05/16 01:35:25;;;;;;;7.70;3.30;;;10.40;99.90;;;;;;5011515;28;20441;-57
2022/05/16 01:40:36;;;;;;;9.68;3.38;;;10.30;99.90;;;;;;5011993;28;20108;-57
2022/05/16 01:43:03;;;;;;;11.23;3.80;;;10.30;99.90;;;;;;5011632;28;20034;-56
2022/05/16 01:45:28;;;;;;;6.93;2.80;;;10.30;99.90;;;;;;5010120;28;20056;-57
2022/05/16 01:47:54;;;;;;;8.07;3.78;;;10.40;99.90;;;;;;5009716;28;20058;-57
2022/05/16 01:50:20;;;;;;;12.73;3.83;;;10.20;99.90;;;;;;5009988;28;20057;-57
2022/05/16 01:52:46;;;;;;;7.00;3.13;;;10.30;99.90;;;;;;5010627;28;20104;-57
2022/05/16 01:55:11;;;;;;;9.25;3.40;;;9.90;99.90;;;;;;5010793;28;20402;-56
2022/05/16 01:57:40;;;;;;;12.88;3.33;;;10.20;99.90;;;;;;5011823;28;20048;-57
2022/05/16 02:00:09;;;;;;;6.32;2.63;;;10.60;99.90;;;;;;5009975;28;20045;-57
2022/05/16 02:02:36;;;;;;;7.57;2.92;;;9.80;99.90;;;;;;5010479;28;20046;-57
2022/05/16 02:05:03;;;;;;;7.75;2.63;;;9.80;99.90;;;;;;5011642;28;20113;-57
2022/05/16 02:07:28;;;;;;;6.93;2.88;;;9.80;99.90;;;;;;5010514;28;20046;-57
2022/05/16 02:09:54;;;;;;;6.30;2.38;;;10.80;99.90;;;;;;5011734;28;20128;-57
2022/05/16 02:12:20;;;;;;;8.27;2.40;;;10.00;99.90;;;;;;5010081;28;20053;-57
2022/05/16 02:14:46;;;;;;;8.93;2.85;;;10.10;99.90;;;;;;5009520;28;20404;-57
2022/05/16 02:17:12;;;;;;;6.07;2.75;;;10.10;99.90;;;;;;4993988;28;20099;-57
2022/05/16 02:19:37;;;;;;;9.65;2.45;;;10.10;99.90;;;;;;5010252;28;20048;-57
2022/05/16 02:24:48;;;;;;;8.55;2.67;;;9.70;99.90;;;;;;5009859;28;20092;-57
2022/05/16 02:27:19;;;;;;;8.55;2.45;;;10.20;99.90;;;;;;5010986;28;20045;-57
2022/05/16 02:29:45;;;;;;;6.43;2.30;;;10.10;99.90;;;;;;5011810;28;20092;-56
2022/05/16 02:32:12;;;;;;;6.95;2.08;;;10.10;99.90;;;;;;5010114;28;20457;-56
2022/05/16 02:34:39;;;;;;;9.15;2.60;;;10.60;99.90;;;;;;5011271;28;20034;-56
2022/05/16 02:37:06;;;;;;;7.05;2.50;;;10.00;99.90;;;;;;5011067;28;20769;-57
2022/05/16 02:39:32;;;;;;;11.18;2.05;;;9.60;99.90;;;;;;5009980;28;20386;-57
2022/05/16 02:41:58;;;;;;;10.98;2.25;;;10.10;99.90;;;;;;5009626;28;20030;-56
2022/05/16 02:44:24;;;;;;;14.63;4.22;;;9.90;99.90;;;;;;5015630;28;20519;-56
2022/05/16 02:46:49;;;;;;;7.40;1.83;;;10.00;99.90;;;;;;5017402;28;20034;-57
2022/05/16 02:49:15;;;;;;;11.30;2.00;;;10.90;99.90;;;;;;5015429;28;20519;-57
2022/05/16 02:51:41;;;;;;;4.10;2.00;;;10.50;99.90;;;;;;5016358;28;20045;-57
2022/05/16 02:54:07;;;;;;;6.07;2.50;;;9.90;99.90;;;;;;5015736;28;20050;-56
2022/05/16 02:56:33;;;;;;;7.38;1.90;;;10.00;99.90;;;;;;5017119;28;20050;-56
2022/05/16 02:58:58;;;;;;;4.05;1.67;;;10.20;99.90;;;;;;5015762;28;20547;-56
2022/05/16 03:01:25;;;;;;;7.72;1.88;;;10.20;99.90;;;;;;5015637;28;20455;-57
2022/05/16 03:03:51;;;;;;;4.40;2.15;;;9.80;99.90;;;;;;5017661;28;20069;-56
2022/05/16 03:06:18;;;;;;;10.35;3.15;;;10.20;99.90;;;;;;5018097;28;20625;-57
2022/05/16 03:08:44;;;;;;;6.38;1.70;;;9.90;99.90;;;;;;5016548;28;20052;-56
2022/05/16 03:11:10;;;;;;;5.30;2.13;;;10.20;99.90;;;;;;5016090;28;20367;-57
2022/05/16 03:13:36;;;;;;;6.70;1.67;;;9.80;99.90;;;;;;5017012;28;20052;-56
2022/05/16 03:16:03;;;;;;;4.60;1.75;;;10.20;99.90;;;;;;5015638;28;20046;-56
2022/05/16 03:18:31;;;;;;;4.85;1.50;;;9.50;99.90;;;;;;5016331;28;20081;-56
2022/05/16 03:20:57;;;;;;;5.55;1.67;;;10.00;99.90;;;;;;5015389;28;20054;-56
2022/05/16 03:23:23;;;;;;;6.72;1.92;;;9.80;99.90;;;;;;5017204;28;20376;-57
2022/05/16 03:25:49;;;;;;;7.72;1.60;;;9.90;99.90;;;;;;5016926;28;20033;-56
2022/05/16 03:28:15;;;;;;;8.45;2.13;;;9.70;99.90;;;;;;5016605;28;20543;-56
2022/05/16 03:30:42;;;;;;;7.57;2.28;;;9.80;99.90;;;;;;4999727;28;20048;-56
2022/05/16 03:33:09;;;;;;;9.20;1.85;;;9.70;99.90;;;;;;5015476;28;20099;-56
2022/05/16 03:35:35;;;;;;;6.43;1.75;;;10.20;99.90;;;;;;5015117;28;20050;-57
2022/05/16 03:38:01;;;;;;;6.75;1.80;;;9.90;99.90;;;;;;5016652;28;20077;-56
2022/05/16 03:40:45;;;;;;;7.70;1.60;;;10.20;99.90;;;;;;5014618;28;20500;-56
2022/05/16 03:43:15;;;;;;;3.75;1.55;;;9.70;99.90;;;;;;5015340;28;20493;-56
2022/05/16 03:45:41;;;;;;;5.10;1.63;;;9.60;99.90;;;;;;5015936;28;20058;-56
2022/05/16 03:48:08;;;;;;;8.32;1.65;;;9.90;99.90;;;;;;5015077;28;20141;-56
2022/05/16 03:50:34;;;;;;;9.93;1.80;;;9.40;99.90;;;;;;5016517;28;20111;-56
2022/05/16 03:53:01;;;;;;;8.25;1.63;;;9.80;99.90;;;;;;5016110;28;20076;-57
2022/05/16 03:55:29;;;;;;;14.00;2.20;;;10.20;99.90;;;;;;5014060;28;20460;-56
2022/05/16 03:57:54;;;;;;;12.27;1.80;;;10.30;99.90;;;;;;5013233;28;20085;-56
2022/05/16 04:00:21;;;;;;;12.18;1.85;;;9.90;99.90;;;;;;5011494;28;20080;-56
2022/05/16 04:02:47;;;;;;;8.88;1.40;;;9.80;99.90;;;;;;5013946;28;20042;-57
2022/05/16 04:05:16;;;;;;;5.93;1.50;;;10.40;99.90;;;;;;5014205;28;20038;-56
2022/05/16 04:07:42;;;;;;;4.13;1.65;;;10.80;99.90;;;;;;5012039;28;20045;-57
2022/05/16 04:10:08;;;;;;;9.45;1.98;;;10.30;99.90;;;;;;5011749;28;20088;-56
2022/05/16 04:12:34;;;;;;;7.63;1.98;;;10.50;99.90;;;;;;5011059;28;20049;-57
2022/05/16 04:15:03;;;;;;;7.13;1.80;;;10.70;99.90;;;;;;5012259;28;20050;-56
2022/05/16 04:17:29;;;;;;;7.18;2.17;;;10.80;99.90;;;;;;5013482;28;20124;-56
2022/05/16 04:19:55;;;;;;;4.78;1.48;;;11.50;99.90;;;;;;5012531;28;20141;-56
2022/05/16 04:22:21;;;;;;;3.05;1.63;;;11.40;99.90;;;;;;5012744;28;20054;-57
2022/05/16 04:24:46;;;;;;;10.30;2.25;;;12.00;99.90;;;;;;5013810;28;20050;-56
2022/05/16 04:27:13;;;;;;;13.32;1.67;;;12.00;99.90;;;;;;5013560;28;20038;-56
2022/05/16 04:29:38;;;;;;;4.00;1.17;;;12.30;99.90;;;;;;5014030;28;20048;-57
2022/05/16 04:32:04;;;;;;;4.88;1.55;;;12.20;99.90;;;;;;5013979;28;20128;-56
2022/05/16 04:34:30;;;;;;;4.50;1.67;;;11.90;99.90;;;;;;5012607;28;20046;-56
2022/05/16 04:36:56;;;;;;;5.90;1.35;;;12.10;99.90;;;;;;5013450;28;20045;-57
2022/05/16 04:39:22;;;;;;;4.40;1.48;;;12.20;99.90;;;;;;5012229;28;20046;-57
2022/05/16 04:44:36;;;;;;;3.53;1.50;;;12.80;99.90;;;;;;5012871;28;20096;-57
2022/05/16 04:47:03;;;;;;;7.20;1.45;;;13.00;99.90;;;;;;5013043;28;20042;-57
2022/05/16 04:49:30;;;;;;;6.70;1.58;;;12.30;99.90;;;;;;5011822;28;20079;-56
2022/05/16 04:51:56;;;;;;;5.63;1.70;;;13.00;99.90;;;;;;5013553;28;20046;-57
2022/05/16 04:54:21;;;;;;;5.60;1.45;;;12.80;99.90;;;;;;5012125;28;20064;-57
2022/05/16 04:56:47;;;;;;;4.90;1.30;;;12.40;99.90;;;;;;5013334;28;20046;-57
2022/05/16 04:59:14;;;;;;;4.43;1.45;;;12.90;99.90;;;;;;5012286;28;20432;-57
2022/05/16 05:01:41;;;;;;;4.63;1.10;;;12.70;99.90;;;;;;5011708;28;20058;-56
2022/05/16 05:04:07;;;;;;;4.78;1.30;;;12.80;99.90;;;;;;5012404;28;20123;-57
2022/05/16 05:06:33;;;;;;;6.03;1.30;;;12.90;99.90;;;;;;5012098;28;20053;-57
2022/05/16 05:08:58;;;;;;;3.80;1.30;;;12.50;99.90;;;;;;5012165;28;20390;-57
2022/05/16 05:16:53;;;;;;;7.75;1.67;;;12.70;99.90;;;;;;5013042;28;20411;-56
2022/05/16 05:19:19;;;;;;;8.18;1.70;;;12.30;99.90;;;;;;5011964;28;20054;-57
2022/05/16 05:21:44;;;;;;;4.70;1.42;;;12.70;99.90;;;;;;5012484;28;20482;-57
2022/05/16 05:24:10;;;;;;;4.43;1.90;;;13.00;99.90;;;;;;5012762;28;20053;-56
2022/05/16 05:26:39;;;;;;;5.72;1.50;;;13.70;99.90;;;;;;5012822;28;20053;-57
2022/05/16 05:29:05;;;;;;;5.22;1.30;;;14.90;99.90;;;;;;5012651;28;20046;-56
2022/05/16 05:31:31;;;;;;;9.75;1.38;;;15.30;97.80;;;;;;5012332;28;20050;-56
2022/05/16 05:33:57;;;;;;;6.88;1.52;;;16.60;94.30;;;;;;5011875;28;20095;-57
2022/05/16 05:36:25;;;;;;;5.30;1.67;;;17.20;92.20;;;;;;5013082;28;20061;-57
2022/05/16 05:38:51;;;;;;;7.75;1.73;;;17.70;90.60;;;;;;5013214;28;20050;-57
2022/05/16 05:41:20;;;;;;;6.18;1.35;;;18.20;88.10;;;;;;5011682;28;20053;-57
2022/05/16 05:43:46;;;;;;;4.03;1.42;;;18.80;84.10;;;;;;5013100;28;20042;-57
2022/05/16 05:46:11;;;;;;;5.85;1.17;;;18.70;83.60;;;;;;5012341;28;20045;-57
2022/05/16 05:48:37;;;;;;;7.80;1.85;;;18.20;83.60;;;;;;5011264;28;20493;-57
2022/05/16 05:51:03;;;;;;;7.07;1.80;;;17.80;83.80;;;;;;5012592;28;20125;-57
2022/05/16 05:53:29;;;;;;;4.88;1.48;;;17.40;84.20;;;;;;5012031;28;20215;-58
2022/05/16 05:55:54;;;;;;;6.82;2.25;;;17.30;84.30;;;;;;5013513;28;20120;-57
2022/05/16 05:58:21;;;;;;;3.65;1.13;;;17.40;84.00;;;;;;5012123;28;20397;-58
2022/05/16 06:00:49;;;;;;;5.55;1.73;;;17.50;83.30;;;;;;5011647;28;20053;-57
2022/05/16 06:03:15;;;;;;;6.70;2.03;;;17.40;82.80;;;;;;5011787;28;20042;-57
2022/05/16 06:05:41;;;;;;;8.98;2.38;;;17.20;82.50;;;;;;5013473;28;20029;-57
2022/05/16 06:08:07;;;;;;;4.32;1.52;;;17.10;82.30;;;;;;5011959;28;20052;-56
2022/05/16 06:10:33;;;;;;;7.57;2.33;;;17.00;82.60;;;;;;5013233;28;20053;-57
2022/05/16 06:13:00;;;;;;;5.13;1.40;;;17.80;80.80;;;;;;5012695;28;20049;-57
2022/05/16 06:15:26;;;;;;;5.45;1.50;;;18.20;79.70;;;;;;5011257;28;20034;-58
2022/05/16 06:17:52;;;;;;;5.13;1.55;;;18.30;78.70;;;;;;5012500;28;20474;-57
2022/05/16 06:20:18;;;;;;;3.35;1.50;;;18.10;78.40;;;;;;5013100;28;20077;-58
2022/05/16 06:22:43;;;;;;;9.65;1.55;;;18.00;78.20;;;;;;5011502;28;20042;-57
2022/05/16 06:25:33;;;;;;;4.97;1.63;;;17.70;78.10;;;;;;5010967;28;20441;-57
2022/05/16 06:28:04;;;;;;;6.60;1.92;;;17.80;78.30;;;;;;5011908;28;20052;-57
2022/05/16 06:30:30;;;;;;;4.38;1.70;;;17.50;78.80;;;;;;5010985;28;20429;-57
2022/05/16 06:32:56;;;;;;;6.97;1.73;;;17.50;79.40;;;;;;5012485;28;20045;-57
2022/05/16 06:35:22;;;;;;;12.43;2.08;;;17.50;78.60;;;;;;5012484;28;20050;-57
2022/05/16 06:37:47;;;;;;;9.43;1.88;;;17.70;78.20;;;;;;5012023;28;20038;-56
2022/05/16 06:40:15;;;;;;;9.48;1.73;;;18.50;77.60;;;;;;5012982;28;20044;-57
2022/05/16 06:42:40;;;;;;;7.03;1.60;;;19.30;75.70;;;;;;5012518;28;20104;-57
2022/05/16 06:45:07;;;;;;;9.20;2.15;;;19.40;74.80;;;;;;5012292;28;20493;-57
2022/05/16 06:47:33;;;;;;;20.33;3.40;;;19.50;73.60;;;;;;5012487;28;20034;-57
2022/05/16 06:49:59;;;;;;;10.55;2.85;;;20.60;71.90;;;;;;5012574;28;20503;-57
2022/05/16 06:52:25;;;;;;;6.80;2.00;;;22.20;69.10;;;;;;5012496;28;20465;-57
2022/05/16 06:54:51;;;;;;;7.43;1.60;;;23.50;66.00;;;;;;5010694;28;20359;-57
2022/05/16 06:57:17;;;;;;;7.95;1.83;;;24.70;63.40;;;;;;5011923;28;20041;-58
2022/05/16 06:59:43;;;;;;;6.32;1.40;;;25.50;60.50;;;;;;5012125;28;20397;-57
2022/05/16 07:02:09;;;;;;;4.43;1.92;;;26.20;58.30;;;;;;5011261;28;20052;-57
2022/05/16 07:04:37;;;;;;;7.07;1.35;;;26.90;56.80;;;;;;5010878;28;20386;-58
2022/05/16 07:07:04;;;;;;;3.97;1.50;;;27.60;55.00;;;;;;5010484;28;20046;-57
2022/05/16 07:09:30;;;;;;;4.90;1.27;;;28.00;53.50;;;;;;5010632;28;20053;-58
2022/05/16 07:11:56;;;;;;;7.00;1.80;;;28.10;53.50;;;;;;5011523;28;20050;-59
2022/05/16 07:14:22;;;;;;;7.75;2.17;;;28.80;52.70;;;;;;5011325;28;20088;-58
2022/05/16 07:16:47;;;;;;;9.05;2.00;;;29.50;51.40;;;;;;5010653;28;20397;-58
2022/05/16 07:19:13;;;;;;;5.13;2.20;;;29.50;50.00;;;;;;5011843;28;20042;-58
2022/05/16 07:21:39;;;;;;;7.97;1.75;;;29.50;49.30;;;;;;5010953;28;20054;-58
2022/05/16 07:24:05;;;;;;;12.52;1.98;;;29.40;49.40;;;;;;5011163;28;20048;-58
2022/05/16 07:29:15;;;;;;;9.55;1.77;;;29.50;48.10;;;;;;5009981;28;20052;-59
2022/05/16 07:31:41;;;;;;;7.88;1.42;;;29.50;48.20;;;;;;5013761;28;20125;-59
2022/05/16 07:34:07;;;;;;;10.10;1.60;;;29.90;47.50;;;;;;5013673;28;20104;-58
2022/05/16 07:36:32;;;;;;;7.53;1.85;;;30.20;46.60;;;;;;5013771;28;20045;-58
2022/05/16 07:38:58;;;;;;;6.40;1.38;;;30.30;46.30;;;;;;5014616;28;20038;-59
2022/05/16 07:41:23;;;;;;;4.78;1.48;;;30.30;45.90;;;;;;4996914;28;20136;-59
2022/05/16 07:43:49;;;;;;;6.95;1.63;;;30.50;46.00;;;;;;5012909;28;20057;-58
2022/05/16 07:46:15;;;;;;;7.22;1.83;;;30.70;45.90;;;;;;5013443;28;20104;-59
2022/05/16 07:48:42;;;;;;;6.85;1.52;;;31.00;45.40;;;;;;5011714;28;20037;-59
2022/05/16 07:51:08;;;;;;;11.02;1.98;;;30.90;45.10;;;;;;5013745;28;20057;-59
2022/05/16 07:53:34;;;;;;;6.63;1.25;;;30.90;44.70;;;;;;5009019;28;20049;-56
2022/05/16 07:56:00;;;;;;;10.15;1.38;;;31.00;44.80;;;;;;5003294;28;20059;-54
2022/05/16 07:58:26;;;;;;;9.27;2.03;;;31.30;45.10;;;;;;5005292;28;20056;-56
2022/05/16 08:00:52;;;;;;;10.27;1.55;;;31.60;44.60;;;;;;5009931;28;20037;-53
2022/05/16 08:03:23;;;;;;;7.88;1.90;;;31.60;44.20;;;;;;5010239;28;20171;-56
2022/05/16 08:05:49;;;;;;;10.50;1.92;;;31.40;43.70;;;;;;5010098;28;20488;-57
2022/05/16 08:11:01;;;;;;;7.97;1.60;;;32.00;44.30;;;;;;5007964;28;20812;-57
2022/05/16 08:13:28;;;;;;;6.47;1.77;;;31.60;43.70;;;;;;5009824;28;20081;-46
2022/05/16 08:15:54;;;;;;;8.60;1.98;;;30.40;43.30;;;;;;5009536;28;20041;-46
2022/05/16 08:18:20;;;;;;;7.93;1.65;;;30.10;44.00;;;;;;5009646;28;20053;-48
2022/05/16 08:20:47;;;;;;;7.25;1.63;;;30.30;44.50;;;;;;5009389;28;20038;-52
2022/05/16 08:23:16;;;;;;;7.57;1.52;;;30.80;45.40;;;;;;5009912;28;20046;-45
2022/05/16 08:25:45;;;;;;;6.25;1.38;;;31.00;43.80;;;;;;5010270;28;20046;-46
2022/05/16 08:28:12;;;;;;;5.35;1.17;;;31.30;43.50;;;;;;5010051;28;20073;-45
2022/05/16 08:30:38;;;;;;;7.95;1.52;;;31.60;43.60;;;;;;5010197;28;20042;-50
2022/05/16 08:33:04;;;;;;;10.25;1.23;;;31.80;42.50;;;;;;5009895;28;20050;-45
2022/05/16 08:35:31;;;;;;;6.45;1.50;;;32.20;42.30;;;;;;5009660;28;20501;-48
2022/05/16 08:41:19;;;;;;;9.93;1.50;;;32.60;41.40;;;;;;5008374;28;20089;-44
2022/05/16 08:43:45;;;;;;;8.90;1.70;;;32.40;41.10;;;;;;4986158;28;20050;-45
2022/05/16 08:46:32;;;;;;;7.97;1.42;;;32.10;41.70;;;;;;5009600;28;20099;-50
2022/05/16 08:49:21;;;;;;;8.52;1.52;;;31.80;41.50;;;;;;5002684;28;20689;-47
2022/05/16 08:51:53;;;;;;;8.20;1.48;;;31.30;41.90;;;;;;5009979;28;20050;-45
2022/05/16 08:54:57;;;;;;;4.72;1.23;;;31.00;42.10;;;;;;5009243;28;20053;-49
2022/05/16 08:57:33;;;;;;;3.67;1.33;;;31.20;42.10;;;;;;5009305;28;20489;-46
2022/05/16 09:00:15;;;;;;;11.18;1.70;;;31.10;42.00;;;;;;5009031;28;20117;-44
2022/05/16 09:02:43;;;;;;;4.05;1.00;;;30.80;42.40;;;;;;5009479;28;20030;-52
2022/05/16 09:05:17;;;;;;;7.97;1.30;;;30.80;42.90;;;;;;5007027;28;20139;-50
2022/05/16 09:07:48;;;;;;;7.10;1.33;;;30.90;42.40;;;;;;5008949;28;20045;-50
2022/05/16 09:10:19;;;;;;;4.50;0.90;;;31.30;42.80;;;;;;5008495;28;20144;-47
2022/05/16 09:13:22;;;;;;;6.57;1.25;;;32.10;42.70;;;;;;5007004;28;20042;-49
2022/05/16 09:16:18;;;;;;;8.85;1.58;;;33.40;42.20;;;;;;5000356;28;20111;-47
2022/05/16 09:19:00;;;;;;;6.07;1.20;;;34.60;41.00;;;;;;4989681;28;20053;-49
2022/05/16 09:21:51;;;;;;;6.18;1.33;;;35.50;39.90;;;;;;4997237;28;20556;-44
2022/05/16 09:24:27;;;;;;;3.40;1.35;;;36.60;39.60;;;;;;5005832;28;20166;-45
2022/05/16 09:30:13;;;;;;;7.10;1.30;;;37.90;37.80;;;;;;5005397;28;20053;-47
2022/05/16 09:32:44;;;;;;;6.65;1.38;;;38.20;37.50;;;;;;5005702;28;20370;-44
2022/05/16 09:35:28;;;;;;;6.40;0.93;;;38.40;36.70;;;;;;5005407;28;20089;-44
2022/05/16 09:37:57;;;;;;;7.65;1.40;;;38.80;37.00;;;;;;5005448;28;20046;-46
2022/05/16 09:40:33;;;;;;;5.82;1.15;;;39.30;37.00;;;;;;5003952;28;20087;-45
2022/05/16 09:43:05;;;;;;;10.10;1.85;;;39.10;36.70;;;;;;5005234;28;20129;-48
2022/05/16 09:45:31;;;;;;;6.90;1.63;;;40.50;36.50;;;;;;5003330;28;20065;-45
2022/05/16 09:47:58;;;;;;;3.90;0.93;;;41.00;35.90;;;;;;5004847;28;20070;-45
2022/05/16 09:50:27;;;;;;;5.57;1.13;;;41.10;35.40;;;;;;5004765;28;20131;-45
2022/05/16 09:53:09;;;;;;;8.38;1.58;;;41.30;34.80;;;;;;5004016;28;20080;-46
2022/05/16 09:55:57;;;;;;;6.18;1.00;;;41.30;34.60;;;;;;5004965;28;20549;-44
2022/05/16 09:58:35;;;;;;;6.32;1.05;;;40.30;34.10;;;;;;5005056;28;20454;-48
2022/05/16 10:01:07;;;;;;;6.97;1.20;;;39.30;34.50;;;;;;5006060;28;20054;-47
2022/05/16 10:03:43;;;;;;;6.93;1.02;;;38.20;34.80;;;;;;5006109;28;20049;-44
2022/05/16 10:06:37;;;;;;;4.70;1.42;;;37.40;35.20;;;;;;5005675;28;20034;-47
2022/05/16 10:09:24;;;;;;;8.77;1.30;;;37.00;36.30;;;;;;5005375;28;20382;-45
2022/05/16 10:11:51;;;;;;;5.07;1.00;;;36.50;37.20;;;;;;5004766;28;20157;-46
2022/05/16 10:14:17;;;;;;;5.65;1.27;;;36.20;37.10;;;;;;5004720;28;20050;-48
2022/05/16 10:16:47;;;;;;;6.07;1.00;;;36.20;37.00;;;;;;5004651;28;20120;-50
2022/05/16 10:19:18;;;;;;;6.13;1.37;;;36.70;38.60;;;;;;5003640;28;20162;-45
2022/05/16 10:21:55;;;;;;;6.60;1.00;;;37.30;37.30;;;;;;5004281;28;20093;-47
2022/05/16 10:24:23;;;;;;;7.05;1.27;;;38.10;37.10;;;;;;4996040;28;20053;-48
2022/05/16 10:26:51;;;;;;;9.40;1.50;;;38.20;35.70;;;;;;5005030;28;20397;-47
2022/05/16 10:29:25;;;;;;;6.22;1.20;;;37.80;36.20;;;;;;5004364;28;20532;-49
2022/05/16 10:35:07;;;;;;;16.77;2.95;;;36.70;34.90;;;;;;5005145;28;20057;-52
2022/05/16 10:37:36;;;;;;;6.63;1.60;;;36.40;35.00;;;;;;5003933;28;20505;-53
2022/05/16 10:40:09;;;;;;;6.22;1.30;;;35.90;36.20;;;;;;5003837;28;20498;-52
2022/05/16 10:43:10;;;;;;;6.07;1.30;;;35.80;36.60;;;;;;5004537;28;20045;-54
2022/05/16 10:45:36;;;;;;;6.00;1.35;;;35.70;37.50;;;;;;5003865;28;20061;-57
2022/05/16 10:48:27;;;;;;;7.82;1.60;;;35.40;37.50;;;;;;5003088;28;20046;-53
2022/05/16 10:51:00;;;;;;;5.57;1.20;;;35.00;37.70;;;;;;5004929;28;20042;-52
2022/05/16 10:53:41;;;;;;;6.03;1.38;;;34.30;37.80;;;;;;5004981;28;20081;-56
2022/05/16 10:56:32;;;;;;;7.55;1.88;;;33.70;38.90;;;;;;5005545;28;20061;-56
2022/05/16 10:59:23;;;;;;;8.60;1.57;;;33.10;40.40;;;;;;5004338;28;20081;-56
2022/05/16 11:02:09;;;;;;;5.65;1.20;;;32.60;52.40;;;;;;5003912;28;20088;-55
2022/05/16 11:04:53;;;;;;;6.07;1.08;;;32.10;58.40;;;;;;5006997;28;20393;-47
2022/05/16 11:07:37;;;;;;;6.70;1.30;;;31.80;60.20;;;;;;5010158;28;20104;-46
2022/05/16 11:10:25;;;;;;;4.32;1.13;;;31.40;62.50;;;;;;5009943;28;20042;-47
2022/05/16 11:13:00;;;;;;;9.95;1.67;;;31.50;58.50;;;;;;5010199;28;20046;-48
2022/05/16 11:15:34;;;;;;;8.43;1.52;;;31.00;55.20;;;;;;5008196;28;20501;-48
2022/05/16 11:18:04;;;;;;;7.13;1.60;;;30.90;47.80;;;;;;5010196;28;20095;-48
2022/05/16 11:20:58;;;;;;;11.15;1.67;;;30.80;42.00;;;;;;5010103;28;20499;-46
2022/05/16 11:23:46;;;;;;;3.72;1.27;;;30.50;44.80;;;;;;5002474;28;20406;-48
2022/05/16 11:26:21;;;;;;;7.13;1.17;;;29.90;48.60;;;;;;5010319;28;20144;-50
2022/05/16 11:29:18;;;;;;;6.72;1.65;;;29.70;45.20;;;;;;5010271;28;20069;-49
2022/05/16 11:32:08;;;;;;;7.32;1.75;;;29.60;44.00;;;;;;5010355;28;20049;-50
2022/05/16 11:34:52;;;;;;;7.20;1.75;;;29.40;44.00;;;;;;5009813;28;20493;-47
2022/05/16 11:37:54;;;;;;;8.15;1.38;;;29.30;45.30;;;;;;5010193;28;20052;-47
2022/05/16 11:40:26;;;;;;;7.07;1.05;;;29.30;44.60;;;;;;5009652;28;20136;-48
2022/05/16 11:42:58;;;;;;;8.13;1.13;;;;;;;;;;5010738;28;20139;-47
2022/05/16 11:45:37;;;;;;;6.68;1.50;;;28.60;44.80;;;;;;5010558;28;20053;-47
2022/05/16 11:48:45;;;;;;;5.75;1.30;;;28.60;46.10;;;;;;5009568;28;20311;-48
2022/05/16 11:51:26;;;;;;;7.72;1.45;;;28.30;46.90;;;;;;5009685;28;20562;-48
2022/05/16 11:53:57;;;;;;;7.07;1.30;;;27.90;50.20;;;;;;5010984;28;20054;-47
2022/05/16 12:02:36;;;;;;;8.77;1.77;;;27.30;48.90;;;;;;5009592;28;20080;-46
2022/05/16 12:05:01;;;;;;;8.18;1.35;;;27.10;58.80;;;;;;5009052;28;20487;-46
2022/05/16 12:07:32;;;;;;;8.40;1.80;;;26.80;59.70;;;;;;5009014;28;20050;-48
2022/05/16 12:10:00;;;;;;;9.60;1.50;;;;;;;;;;5008891;28;20037;-52
2022/05/16 12:12:37;;;;;;;8.95;1.70;;;26.40;80.20;;;;;;5009656;28;20058;-49
2022/05/16 12:15:24;;;;;;;23.83;2.50;;;26.20;74.20;;;;;;5009175;28;20074;-49
2022/05/16 12:17:52;;;;;;;17.73;2.70;;;25.90;59.20;;;;;;5009292;28;20046;-49
2022/05/16 12:20:43;;;;;;;189.50;13.23;;;25.70;59.30;;;;;;5008582;28;20050;-49
2022/05/16 12:23:13;;;;;;;32.17;4.40;;;25.30;61.60;;;;;;4999922;28;20619;-49
2022/05/16 12:25:40;;;;;;;16.38;2.55;;;25.10;62.60;;;;;;5009361;28;20127;-46
2022/05/16 12:28:12;;;;;;;144.88;13.45;;;25.00;64.30;;;;;;5010547;28;20463;-47
2022/05/16 12:30:37;;;;;;;25.27;3.13;;;25.00;68.00;;;;;;5009837;28;20192;-47
2022/05/16 12:33:05;;;;;;;8.93;2.55;;;25.10;66.80;;;;;;5009594;28;20132;-47
2022/05/16 12:35:35;;;;;;;15.20;2.67;;;25.10;68.20;;;;;;5009455;28;20069;-45
2022/05/16 12:38:02;;;;;;;7.70;2.27;;;25.10;67.00;;;;;;5009367;28;20057;-48
2022/05/16 12:40:34;;;;;;;18.52;3.00;;;25.10;66.50;;;;;;5008881;28;20121;-48
2022/05/16 12:43:06;;;;;;;9.77;2.40;;;25.10;66.70;;;;;;5008887;28;20042;-45
2022/05/16 12:45:57;;;;;;;3.80;1.70;;;25.20;66.90;;;;;;5008425;28;20353;-46
2022/05/16 12:48:50;;;;;;;10.50;2.03;;;25.30;66.60;;;;;;5008257;28;20042;-47
2022/05/16 12:51:36;;;;;;;11.05;2.55;;;25.50;65.40;;;;;;5008892;28;20050;-46
2022/05/16 12:54:18;;;;;;;11.38;2.75;;;25.70;64.40;;;;;;5009324;28;20062;-45
2022/05/16 12:56:54;;;;;;;9.13;2.05;;;25.90;62.80;;;;;;5008251;28;20057;-46
2022/05/16 12:59:34;;;;;;;8.95;2.03;;;26.00;63.30;;;;;;5008478;28;20057;-47
2022/05/16 13:02:09;;;;;;;13.75;2.13;;;26.00;62.70;;;;;;5009453;28;20057;-47
2022/05/16 13:04:56;;;;;;;8.48;1.95;;;26.00;62.90;;;;;;5009266;28;20042;-47
2022/05/16 13:07:39;;;;;;;4.90;1.60;;;25.90;62.60;;;;;;5009462;28;20042;-47
2022/05/16 13:10:30;;;;;;;5.38;1.60;;;25.80;62.10;;;;;;5008822;28;20077;-50
2022/05/16 13:13:25;;;;;;;6.75;2.50;;;25.90;62.50;;;;;;5008488;28;20107;-49
2022/05/16 13:16:17;;;;;;;11.15;2.13;;;26.10;62.30;;;;;;5007568;28;20046;-48
2022/05/16 13:18:45;;;;;;;;;;;26.40;61.90;;;;;;5008888;28;20042;-48
2022/05/16 13:21:15;;;;;;;16.83;2.30;;;26.60;60.00;;;;;;5005721;28;20381;-45
2022/05/16 13:23:41;;;;;;;23.92;2.45;;;26.90;58.80;;;;;;4997699;28;20058;-47
2022/05/16 13:31:42;;;;;;;9.85;1.95;;;27.20;57.20;;;;;;5008552;28;20045;-47
2022/05/16 13:34:11;;;;;;;27.67;2.83;;;27.30;58.00;;;;;;5007381;28;20383;-48
2022/05/16 13:36:38;;;;;;;6.30;1.70;;;27.30;57.80;;;;;;5005392;28;20069;-44
2022/05/16 13:39:11;;;;;;;45.00;4.28;;;27.40;58.40;;;;;;5007639;28;20050;-48
2022/05/16 13:41:37;;;;;;;5.65;1.15;;;27.50;58.00;;;;;;5007872;28;20058;-45
2022/05/16 13:44:04;;;;;;;28.60;3.45;;;27.60;57.80;;;;;;5006081;28;20469;-48
2022/05/16 13:46:34;;;;;;;9.13;1.63;;;27.50;56.80;;;;;;5007718;28;20041;-47